createdAt,value
2022-11-22T00:00:30.266Z,99095.06
2022-11-22T00:02:56.471Z,99078.13
2022-11-22T00:05:22.695Z,99086.41
2022-11-22T00:07:48.944Z,99078.34
2022-11-22T00:10:15.231Z,99084.03
2022-11-22T00:12:41.512Z,99078.91
2022-11-22T00:15:07.980Z,99090.09
2022-11-22T00:17:34.360Z,99084.78
2022-11-22T00:20:00.575Z,99078.25
2022-11-22T00:22:26.769Z,99083.56
2022-11-22T00:24:53.017Z,99074.75
2022-11-22T00:27:19.539Z,99073.34
2022-11-22T00:29:45.759Z,99074.13
2022-11-22T00:32:11.959Z,99077.84
2022-11-22T00:34:38.159Z,99072.78
2022-11-22T00:37:04.365Z,99072.78
2022-11-22T00:39:30.978Z,99083.41
2022-11-22T00:41:57.444Z,99082.44
2022-11-22T00:44:23.669Z,99073.81
2022-11-22T00:46:49.870Z,99071.25
2022-11-22T00:49:16.098Z,99073.22
2022-11-22T00:51:42.309Z,99070.66
2022-11-22T00:54:08.526Z,99070.13
2022-11-22T00:56:34.741Z,99069.34
2022-11-22T00:59:01.029Z,99071.91
2022-11-22T01:01:27.291Z,99085.09
2022-11-22T01:03:53.516Z,99088.44
2022-11-22T01:06:19.727Z,99091.59
2022-11-22T01:08:45.929Z,99084.50
2022-11-22T01:11:12.145Z,99078.81
2022-11-22T01:13:38.337Z,99072.91
2022-11-22T01:16:05.663Z,99063.88
2022-11-22T01:18:31.950Z,99065.22
2022-11-22T01:20:58.156Z,99071.72
2022-11-22T01:23:24.367Z,99075.44
2022-11-22T01:25:50.582Z,99076.63
2022-11-22T01:28:17.059Z,99077.63
2022-11-22T01:30:43.259Z,99073.88
2022-11-22T01:33:09.657Z,99074.06
2022-11-22T01:35:36.022Z,99060.69
2022-11-22T01:38:02.226Z,99060.50
2022-11-22T01:40:28.441Z,99063.06
2022-11-22T01:42:55.486Z,99059.53
2022-11-22T01:45:30.792Z,99062.66
2022-11-22T01:47:57.357Z,99061.25
2022-11-22T01:50:23.567Z,99069.16
2022-11-22T01:52:49.779Z,99064.25
2022-11-22T01:55:16.145Z,99063.25
2022-11-22T01:57:42.339Z,99056.38
2022-11-22T02:00:09.345Z,99062.06
2022-11-22T02:02:35.536Z,99066.22
2022-11-22T02:05:02.533Z,99064.25
2022-11-22T02:07:35.660Z,99054.41
2022-11-22T02:10:01.898Z,99055.81
2022-11-22T02:12:28.474Z,99054.81
2022-11-22T02:14:54.686Z,99069.56
2022-11-22T02:17:20.895Z,99052.06
2022-11-22T02:19:47.902Z,99052.84
2022-11-22T02:22:23.208Z,99046.97
2022-11-22T02:24:51.877Z,99036.31
2022-11-22T02:27:18.167Z,99042.59
2022-11-22T02:29:44.359Z,99048.13
2022-11-22T02:32:10.580Z,99053.41
2022-11-22T02:34:43.683Z,99049.31
2022-11-22T02:37:09.934Z,99032.56
2022-11-22T02:39:36.169Z,99040.03
2022-11-22T02:42:02.381Z,99042.41
2022-11-22T02:44:28.593Z,99038.88
2022-11-22T02:46:54.854Z,99051.84
2022-11-22T02:49:22.484Z,99042.81
2022-11-22T02:51:48.800Z,99032.97
2022-11-22T02:54:15.004Z,99039.69
2022-11-22T02:56:41.230Z,99031.22
2022-11-22T02:59:07.433Z,99031.81
2022-11-22T03:01:33.727Z,99031.59
2022-11-22T03:03:59.984Z,99021.19
2022-11-22T03:06:26.197Z,99015.50
2022-11-22T03:08:56.394Z,99008.81
2022-11-22T03:11:23.013Z,98999.94
2022-11-22T03:13:49.449Z,99009.56
2022-11-22T03:16:15.700Z,99008.97
2022-11-22T03:18:41.904Z,99008.59
2022-11-22T03:21:08.523Z,99008.19
2022-11-22T03:23:34.759Z,99009.38
2022-11-22T03:26:06.225Z,98986.34
2022-11-22T03:28:32.457Z,98995.19
2022-11-22T03:30:58.666Z,98992.63
2022-11-22T03:33:24.920Z,98988.13
2022-11-22T03:35:54.759Z,99004.47
2022-11-22T03:38:20.979Z,98994.81
2022-11-22T03:40:47.173Z,98985.38
2022-11-22T03:43:13.465Z,98986.94
2022-11-22T03:45:43.745Z,98972.78
2022-11-22T03:48:09.948Z,98964.34
2022-11-22T03:50:36.453Z,98961.38
2022-11-22T03:53:02.678Z,98961.78
2022-11-22T03:55:28.895Z,98961.00
2022-11-22T03:57:55.121Z,98956.84
2022-11-22T04:00:21.317Z,98948.78
2022-11-22T04:02:47.533Z,98952.72
2022-11-22T04:05:13.736Z,98944.66
2022-11-22T04:07:39.979Z,98926.91
2022-11-22T04:10:06.460Z,98924.56
2022-11-22T04:12:32.665Z,98919.25
2022-11-22T04:14:58.875Z,98906.06
2022-11-22T04:17:25.089Z,98892.69
2022-11-22T04:19:51.296Z,98876.16
2022-11-22T04:22:17.491Z,98875.59
2022-11-22T04:24:43.706Z,98890.53
2022-11-22T04:27:09.900Z,98894.47
2022-11-22T04:29:36.113Z,98898.00
2022-11-22T04:32:02.320Z,98903.91
2022-11-22T04:34:28.567Z,98913.16
2022-11-22T04:36:54.769Z,98900.97
2022-11-22T04:39:20.989Z,98899.19
2022-11-22T04:41:47.193Z,98892.88
2022-11-22T04:44:13.410Z,98885.59
2022-11-22T04:46:39.601Z,98883.06
2022-11-22T04:49:05.810Z,98885.41
2022-11-22T04:51:32.013Z,98887.19
2022-11-22T04:53:58.222Z,98874.59
2022-11-22T04:56:24.417Z,98881.06
2022-11-22T04:58:50.619Z,98864.72
2022-11-22T05:01:16.929Z,98852.16
2022-11-22T05:03:43.222Z,98845.06
2022-11-22T05:06:10.308Z,98833.25
2022-11-22T05:08:36.516Z,98826.97
2022-11-22T05:11:02.718Z,98816.91
2022-11-22T05:13:35.805Z,98809.84
2022-11-22T05:16:02.394Z,98813.56
2022-11-22T05:18:28.592Z,98813.38
2022-11-22T05:20:54.797Z,98811.78
2022-11-22T05:23:21.019Z,98794.09
2022-11-22T05:25:47.241Z,98792.31
2022-11-22T05:28:13.435Z,98799.97
2022-11-22T05:30:39.756Z,98792.09
2022-11-22T05:33:05.949Z,98794.28
2022-11-22T05:35:32.149Z,98788.97
2022-11-22T05:37:58.381Z,98782.28
2022-11-22T05:40:24.831Z,98799.19
2022-11-22T05:42:51.025Z,98799.97
2022-11-22T05:45:17.605Z,98801.97
2022-11-22T05:47:43.799Z,98798.63
2022-11-22T05:50:10.114Z,98788.38
2022-11-22T05:52:36.379Z,98791.94
2022-11-22T05:55:02.601Z,98803.16
2022-11-22T05:57:28.808Z,98804.72
2022-11-22T05:59:55.018Z,98811.63
2022-11-22T06:02:21.265Z,98813.41
2022-11-22T06:04:47.590Z,98815.16
2022-11-22T06:07:13.830Z,98823.44
2022-11-22T06:09:40.070Z,98805.09
2022-11-22T06:12:06.357Z,98813.41
2022-11-22T06:14:32.580Z,98817.53
2022-11-22T06:16:58.791Z,98823.63
2022-11-22T06:19:24.998Z,98819.88
2022-11-22T06:21:51.193Z,98832.06
2022-11-22T06:24:17.402Z,98818.50
2022-11-22T06:26:43.639Z,98804.88
2022-11-22T06:29:09.854Z,98803.88
2022-11-22T06:31:36.063Z,98791.09
2022-11-22T06:34:02.273Z,98796.59
2022-11-22T06:36:32.149Z,98788.13
2022-11-22T06:38:58.384Z,98779.66
2022-11-22T06:41:25.357Z,98771.19
2022-11-22T06:43:51.939Z,98758.19
2022-11-22T06:46:18.636Z,98764.09
2022-11-22T06:48:44.832Z,98764.09
2022-11-22T06:51:15.255Z,98770.00
2022-11-22T06:53:49.382Z,98787.13
2022-11-22T06:56:27.602Z,98790.63
2022-11-22T06:58:53.976Z,98777.66
2022-11-22T07:01:21.015Z,98787.69
2022-11-22T07:03:47.269Z,98779.03
2022-11-22T07:06:13.746Z,98780.38
2022-11-22T07:08:39.998Z,98784.50
2022-11-22T07:11:06.933Z,98783.91
2022-11-22T07:13:33.198Z,98785.84
2022-11-22T07:15:59.856Z,98785.06
2022-11-22T07:18:26.136Z,98784.06
2022-11-22T07:20:52.351Z,98772.25
2022-11-22T07:23:18.586Z,98781.72
2022-11-22T07:25:45.210Z,98776.59
2022-11-22T07:28:11.665Z,98772.69
2022-11-22T07:30:42.657Z,98767.91
2022-11-22T07:33:10.275Z,98773.81
2022-11-22T07:35:36.637Z,98769.50
2022-11-22T07:38:03.025Z,98767.66
2022-11-22T07:40:29.235Z,98775.53
2022-11-22T07:42:58.401Z,98772.00
2022-11-22T07:45:25.133Z,98772.00
2022-11-22T07:47:51.337Z,98763.13
2022-11-22T07:50:17.545Z,98759.00
2022-11-22T07:52:43.767Z,98748.75
2022-11-22T07:55:14.077Z,98756.25
2022-11-22T07:57:40.656Z,98751.50
2022-11-22T08:00:07.095Z,98751.94
2022-11-22T08:02:33.310Z,98757.63
2022-11-22T08:04:59.522Z,98776.50
2022-11-22T08:07:25.796Z,98764.50
2022-11-22T08:09:52.067Z,98760.16
2022-11-22T08:12:18.271Z,98773.88
2022-11-22T08:14:44.482Z,98775.84
2022-11-22T08:17:10.701Z,98776.41
2022-11-22T08:19:36.899Z,98783.69
2022-11-22T08:22:03.107Z,98772.22
2022-11-22T08:24:29.315Z,98772.03
2022-11-22T08:26:55.526Z,98772.38
2022-11-22T08:29:21.732Z,98766.09
2022-11-22T08:31:47.940Z,98774.75
2022-11-22T08:34:14.133Z,98780.59
2022-11-22T08:36:40.344Z,98780.19
2022-11-22T08:39:06.552Z,98785.69
2022-11-22T08:41:32.766Z,98789.22
2022-11-22T08:43:58.976Z,98803.41
2022-11-22T08:46:25.186Z,98804.97
2022-11-22T08:48:54.351Z,98800.22
2022-11-22T08:51:20.566Z,98809.63
2022-11-22T08:53:46.760Z,98802.75
2022-11-22T08:56:13.706Z,98808.03
2022-11-22T08:58:40.034Z,98803.78
2022-11-22T09:01:07.212Z,98802.47
2022-11-22T09:03:33.916Z,98813.06
2022-11-22T09:08:55.408Z,98806.28
2022-11-22T09:11:29.397Z,98819.97
2022-11-22T09:13:55.588Z,98819.13
2022-11-22T09:16:21.792Z,98809.03
2022-11-22T09:18:47.988Z,98817.91
2022-11-22T09:21:17.680Z,98817.03
2022-11-22T09:23:44.236Z,98806.38
2022-11-22T09:26:11.428Z,98810.94
2022-11-22T09:28:37.685Z,98812.78
2022-11-22T09:31:04.818Z,98809.13
2022-11-22T09:33:31.200Z,98808.53
2022-11-22T09:36:00.740Z,98819.84
2022-11-22T09:38:27.015Z,98815.81
2022-11-22T09:40:56.939Z,98818.00
2022-11-22T09:43:42.065Z,98828.19
2022-11-22T09:46:23.327Z,98832.31
2022-11-22T09:49:06.121Z,98830.75
2022-11-22T09:51:47.585Z,98827.19
2022-11-22T09:54:15.424Z,98821.56
2022-11-22T09:56:41.640Z,98829.31
2022-11-22T09:59:07.797Z,98835.00
2022-11-22T10:01:35.703Z,98840.88
2022-11-22T10:04:11.010Z,98846.78
2022-11-22T10:06:38.165Z,98854.41
2022-11-22T10:09:22.490Z,98853.28
2022-11-22T10:11:54.524Z,98847.25
2022-11-22T10:14:36.051Z,98849.94
2022-11-22T10:17:07.681Z,98849.22
2022-11-22T10:19:41.912Z,98858.25
2022-11-22T10:22:11.794Z,98859.88
2022-11-22T10:24:38.004Z,98867.09
2022-11-22T10:27:04.243Z,98873.16
2022-11-22T10:29:41.672Z,98880.34
2022-11-22T10:32:10.669Z,98880.91
2022-11-22T10:34:36.826Z,98875.78
2022-11-22T10:37:21.660Z,98890.97
2022-11-22T10:40:02.908Z,98906.03
2022-11-22T10:42:32.762Z,98901.38
2022-11-22T10:45:07.744Z,98905.50
2022-11-22T10:47:38.603Z,98908.06
2022-11-22T10:50:25.076Z,98913.28
2022-11-22T10:52:54.619Z,98893.63
2022-11-22T10:55:23.215Z,98901.41
2022-11-22T10:57:49.371Z,98910.66
2022-11-22T11:00:22.210Z,98905.75
2022-11-22T11:02:52.722Z,98916.09
2022-11-22T11:05:19.500Z,98916.06
2022-11-22T11:07:49.876Z,98921.63
2022-11-22T11:10:26.271Z,98923.84
2022-11-22T11:12:56.097Z,98922.28
2022-11-22T11:15:23.168Z,98940.47
2022-11-22T11:17:51.367Z,98933.81
2022-11-22T11:20:25.682Z,98934.38
2022-11-22T11:23:13.233Z,98940.34
2022-11-22T11:25:38.791Z,98933.81
2022-11-22T11:28:18.483Z,98939.31
2022-11-22T11:30:46.260Z,98933.03
2022-11-22T11:33:19.605Z,98934.34
2022-11-22T11:35:45.805Z,98941.53
2022-11-22T11:38:44.654Z,98927.06
2022-11-22T11:41:29.468Z,98936.97
2022-11-22T11:43:56.560Z,98929.69
2022-11-22T11:46:23.538Z,98934.69
2022-11-22T11:48:50.401Z,98942.19
2022-11-22T11:51:17.497Z,98945.88
2022-11-22T11:53:49.997Z,98943.47
2022-11-22T11:56:28.384Z,98952.31
2022-11-22T11:58:55.027Z,98956.75
2022-11-22T12:01:21.256Z,98953.91
2022-11-22T12:03:51.692Z,98962.41
2022-11-22T12:06:17.886Z,98961.16
2022-11-22T12:08:44.111Z,98965.47
2022-11-22T12:11:11.939Z,98969.28
2022-11-22T12:14:04.745Z,98970.53
2022-11-22T12:16:30.528Z,98962.63
2022-11-22T12:19:00.052Z,98955.75
2022-11-22T12:21:39.438Z,98968.16
2022-11-22T12:24:43.147Z,98971.44
2022-11-22T12:27:04.025Z,98978.09
2022-11-22T12:29:30.370Z,98977.88
2022-11-22T12:32:05.111Z,98990.16
2022-11-22T12:34:36.585Z,98997.38
2022-11-22T12:37:05.750Z,98999.59
2022-11-22T12:39:32.733Z,98993.88
2022-11-22T12:42:25.322Z,99001.41
2022-11-22T12:45:01.999Z,98999.28
2022-11-22T12:47:32.344Z,99010.22
2022-11-22T12:50:08.821Z,99003.56
2022-11-22T12:52:38.906Z,99008.72
2022-11-22T12:55:15.206Z,98998.81
2022-11-22T12:57:46.044Z,99003.72
2022-11-22T13:00:21.970Z,99012.56
2022-11-22T13:02:58.730Z,99010.44
2022-11-22T13:05:26.726Z,99014.03
2022-11-22T13:07:52.976Z,99022.56
2022-11-22T13:10:21.935Z,99018.00
2022-11-22T13:12:48.173Z,99017.66
2022-11-22T13:15:25.382Z,99020.00
2022-11-22T13:17:51.593Z,99022.56
2022-11-22T13:20:18.229Z,99027.38
2022-11-22T13:22:44.383Z,99030.50
2022-11-22T13:25:29.237Z,99025.34
2022-11-22T13:27:55.464Z,99035.41
2022-11-22T13:30:22.631Z,99034.06
2022-11-22T13:32:52.446Z,99033.25
2022-11-22T13:35:29.294Z,99034.03
2022-11-22T13:37:56.366Z,99031.97
2022-11-22T13:40:23.920Z,99028.19
2022-11-22T13:43:13.761Z,99019.75
2022-11-22T13:45:51.639Z,99013.13
2022-11-22T13:48:36.625Z,99011.56
2022-11-22T13:51:02.824Z,99009.97
2022-11-22T13:53:30.014Z,99017.38
2022-11-22T13:55:57.015Z,99011.34
2022-11-22T13:58:26.265Z,99008.53
2022-11-22T14:00:55.588Z,99017.81
2022-11-22T14:03:34.043Z,99019.47
2022-11-22T14:06:00.257Z,99014.91
2022-11-22T14:08:27.470Z,99011.69
2022-11-22T14:10:53.644Z,99011.97
2022-11-22T14:13:19.792Z,99019.31
2022-11-22T14:15:47.941Z,99023.03
2022-11-22T14:18:33.010Z,99025.59
2022-11-22T14:21:07.045Z,99027.19
2022-11-22T14:23:51.915Z,99017.34
2022-11-22T14:26:20.705Z,99014.59
2022-11-22T14:29:05.852Z,99029.22
2022-11-22T14:31:34.077Z,99020.59
2022-11-22T14:34:16.265Z,99018.38
2022-11-22T14:36:42.471Z,99025.53
2022-11-22T14:39:33.445Z,99023.25
2022-11-22T14:41:59.916Z,99016.81
2022-11-22T14:44:27.002Z,99030.38
2022-11-22T14:46:55.595Z,99021.97
2022-11-22T14:49:21.788Z,99025.75
2022-11-22T14:51:51.363Z,99022.81
2022-11-22T14:54:37.815Z,99023.38
2022-11-22T14:57:04.777Z,99017.72
2022-11-22T14:59:39.496Z,99008.47
2022-11-22T15:02:13.485Z,99017.72
2022-11-22T15:09:10.828Z,99006.97
2022-11-22T15:09:21.466Z,99018.09
2022-11-22T15:10:27.628Z,99015.94
2022-11-22T15:13:12.781Z,99019.72
2022-11-22T15:58:01.097Z,98964.50
2022-11-22T16:00:27.729Z,98963.88
2022-11-22T16:02:57.195Z,98953.88
2022-11-22T16:06:05.401Z,98955.44
2022-11-22T16:08:10.886Z,98948.75
2022-11-22T16:10:37.779Z,98938.13
2022-11-22T16:13:30.432Z,98931.78
2022-11-22T16:16:11.582Z,98912.66
2022-11-22T16:18:40.966Z,98907.09
2022-11-22T16:21:10.190Z,98911.59
2022-11-22T16:23:36.682Z,98917.03
2022-11-22T16:26:18.092Z,98903.19
2022-11-22T16:28:44.435Z,98903.19
2022-11-22T16:31:30.876Z,98900.63
2022-11-22T16:33:57.225Z,98906.88
2022-11-22T16:36:24.231Z,98898.41
2022-11-22T16:38:50.442Z,98896.63
2022-11-22T16:41:19.647Z,98901.88
2022-11-22T16:43:45.858Z,98890.91
2022-11-22T16:46:15.071Z,98879.66
2022-11-22T16:48:41.404Z,98871.72
2022-11-22T16:51:11.109Z,98870.94
2022-11-22T16:53:38.008Z,98861.69
2022-11-22T16:56:04.241Z,98851.31
2022-11-22T16:58:30.446Z,98840.47
2022-11-22T17:00:56.692Z,98845.06
2022-11-22T17:03:23.304Z,98833.22
2022-11-22T17:05:49.504Z,98828.44
2022-11-22T17:08:16.378Z,98832.56
2022-11-22T17:10:43.658Z,98830.22
2022-11-22T17:13:12.945Z,98818.16
2022-11-22T17:15:39.171Z,98823.63
2022-11-22T17:18:05.380Z,98831.56
2022-11-22T17:20:31.577Z,98839.47
2022-11-22T17:22:57.793Z,98839.25
2022-11-22T17:25:23.995Z,98835.69
2022-11-22T17:27:53.940Z,98829.16
2022-11-22T17:30:20.465Z,98823.84
2022-11-22T17:32:46.674Z,98825.41
2022-11-22T17:35:12.910Z,98826.03
2022-11-22T17:37:39.120Z,98825.41
2022-11-22T17:40:05.575Z,98828.22
2022-11-22T17:42:34.538Z,98821.28
2022-11-22T17:45:04.498Z,98817.94
2022-11-22T17:47:30.707Z,98810.81
2022-11-22T17:49:57.188Z,98805.31
2022-11-22T17:52:23.445Z,98800.19
2022-11-22T17:54:49.653Z,98792.03
2022-11-22T17:57:15.870Z,98794.28
2022-11-22T17:59:42.101Z,98778.66
2022-11-22T18:02:08.906Z,98780.94
2022-11-22T18:04:35.121Z,98789.06
2022-11-22T18:07:01.333Z,98781.94
2022-11-22T18:09:27.548Z,98775.13
2022-11-22T18:11:53.754Z,98767.09
2022-11-22T18:14:19.978Z,98770.44
2022-11-22T18:16:46.177Z,98766.63
2022-11-22T18:19:12.403Z,98766.31
2022-11-22T18:21:38.608Z,98759.59
2022-11-22T18:24:04.819Z,98759.81
2022-11-22T18:26:39.374Z,98751.91
2022-11-22T18:31:53.413Z,98757.81
2022-11-22T18:34:20.276Z,98753.03
2022-11-22T18:36:56.424Z,98729.00
2022-11-22T18:39:25.540Z,98735.94
2022-11-22T18:41:51.751Z,98735.72
2022-11-22T18:44:18.017Z,98741.84
2022-11-22T18:46:44.232Z,98738.06
2022-11-22T18:49:10.449Z,98729.91
2022-11-22T18:51:36.651Z,98714.84
2022-11-22T18:54:02.879Z,98707.72
2022-11-22T18:56:29.099Z,98713.50
2022-11-22T18:58:55.301Z,98714.19
2022-11-22T19:01:22.145Z,98705.34
2022-11-22T19:03:48.423Z,98705.78
2022-11-22T19:06:15.239Z,98703.78
2022-11-22T19:08:41.509Z,98697.09
2022-11-22T19:11:07.754Z,98693.28
2022-11-22T19:13:34.396Z,98690.94
2022-11-22T19:16:06.739Z,98687.38
2022-11-22T19:18:35.555Z,98684.38
2022-11-22T19:21:06.577Z,98678.56
2022-11-22T19:23:32.945Z,98677.78
2022-11-22T19:26:01.376Z,98669.97
2022-11-22T19:28:27.793Z,98670.19
2022-11-22T19:30:54.160Z,98663.69
2022-11-22T19:33:20.383Z,98666.63
2022-11-22T19:35:56.418Z,98657.16
2022-11-22T19:38:22.614Z,98655.13
2022-11-22T19:40:48.815Z,98651.34
2022-11-22T19:43:16.557Z,98647.44
2022-11-22T19:45:42.948Z,98644.63
2022-11-22T19:48:09.145Z,98644.84
2022-11-22T19:50:37.646Z,98637.59
2022-11-22T19:53:03.992Z,98627.44
2022-11-22T19:55:30.214Z,98619.72
2022-11-22T19:57:56.407Z,98604.78
2022-11-22T20:00:22.609Z,98609.91
2022-11-22T20:02:48.811Z,98609.34
2022-11-22T20:05:15.041Z,98603.53
2022-11-22T20:07:41.280Z,98606.91
2022-11-22T20:10:07.576Z,98610.69
2022-11-22T20:12:33.791Z,98595.47
2022-11-22T20:14:59.999Z,98602.09
2022-11-22T20:17:26.211Z,98599.63
2022-11-22T20:19:52.421Z,98594.59
2022-11-22T20:22:18.640Z,98580.66
2022-11-22T20:24:44.853Z,98577.41
2022-11-22T20:27:11.388Z,98583.00
2022-11-22T20:29:37.593Z,98580.53
2022-11-22T20:32:03.809Z,98577.63
2022-11-22T20:34:30.331Z,98579.41
2022-11-22T20:36:56.739Z,98579.41
2022-11-22T20:39:22.940Z,98570.25
2022-11-22T20:41:51.486Z,98569.47
2022-11-22T20:44:27.640Z,98567.81
2022-11-22T20:46:53.845Z,98570.03
2022-11-22T20:49:20.035Z,98567.81
2022-11-22T20:51:46.246Z,98569.03
2022-11-22T20:54:12.444Z,98554.28
2022-11-22T20:56:38.652Z,98559.34
2022-11-22T20:59:04.860Z,98557.88
2022-11-22T21:01:31.145Z,98554.97
2022-11-22T21:03:58.510Z,98549.59
2022-11-22T21:06:24.730Z,98550.16
2022-11-22T21:08:50.933Z,98551.41
2022-11-22T21:11:17.099Z,98552.41
2022-11-22T21:13:43.339Z,98548.59
2022-11-22T21:16:22.334Z,98548.38
2022-11-22T21:18:50.684Z,98545.03
2022-11-22T21:21:16.903Z,98544.78
2022-11-22T21:23:43.172Z,98544.91
2022-11-22T21:26:09.381Z,98550.94
2022-11-22T21:28:36.014Z,98540.13
2022-11-22T21:31:02.242Z,98527.50
2022-11-22T21:33:31.890Z,98528.28
2022-11-22T21:35:58.334Z,98520.66
2022-11-22T21:38:30.858Z,98508.59
2022-11-22T21:41:16.899Z,98512.28
2022-11-22T21:43:50.025Z,98507.59
2022-11-22T21:46:16.700Z,98505.47
2022-11-22T21:48:42.908Z,98506.34
2022-11-22T21:51:09.116Z,98506.59
2022-11-22T21:53:35.328Z,98500.22
2022-11-22T21:56:01.534Z,98502.78
2022-11-22T21:58:27.767Z,98500.88
2022-11-22T22:00:54.190Z,98503.31
2022-11-22T22:03:20.417Z,98508.38
2022-11-22T22:05:50.247Z,98507.91
2022-11-22T22:08:16.494Z,98504.34
2022-11-22T22:10:42.809Z,98503.31
2022-11-22T22:13:09.008Z,98497.97
2022-11-22T22:15:35.211Z,98493.84
2022-11-22T22:18:01.444Z,98495.97
2022-11-22T22:20:27.661Z,98493.06
2022-11-22T22:22:53.870Z,98492.06
2022-11-22T22:25:20.075Z,98491.50
2022-11-22T22:27:46.330Z,98487.00
2022-11-22T22:30:12.789Z,98481.56
2022-11-22T22:32:39.001Z,98482.34
2022-11-22T22:35:05.373Z,98484.56
2022-11-22T22:37:31.588Z,98468.94
2022-11-22T22:39:57.800Z,98460.22
2022-11-22T22:42:24.008Z,98464.66
2022-11-22T22:44:50.199Z,98471.06
2022-11-22T22:47:16.409Z,98469.50
2022-11-22T22:49:42.622Z,98481.09
2022-11-22T22:52:08.829Z,98483.97
2022-11-22T22:54:35.035Z,98484.19
2022-11-22T22:57:01.648Z,98486.06
2022-11-22T22:59:27.842Z,98480.50
2022-11-22T23:01:54.051Z,98475.56
2022-11-22T23:04:20.270Z,98484.19
2022-11-22T23:06:46.493Z,98474.94
2022-11-22T23:09:12.688Z,98467.53
2022-11-22T23:11:38.889Z,98469.81
2022-11-22T23:14:05.140Z,98476.19
2022-11-22T23:16:31.346Z,98470.28
2022-11-22T23:18:57.548Z,98473.41
2022-11-22T23:21:23.740Z,98454.31
2022-11-22T23:23:52.457Z,98449.84
2022-11-22T23:26:18.654Z,98456.00
2022-11-22T23:28:44.856Z,98459.03
2022-11-22T23:31:11.713Z,98460.13
2022-11-22T23:33:37.977Z,98462.81
2022-11-22T23:36:08.024Z,98457.69
2022-11-22T23:38:34.233Z,98451.22
2022-11-22T23:41:00.560Z,98459.81
2022-11-22T23:43:27.088Z,98459.81
2022-11-22T23:45:53.292Z,98453.91
2022-11-22T23:48:19.497Z,98442.63
2022-11-22T23:50:45.697Z,98448.28
2022-11-22T23:53:11.915Z,98449.78
2022-11-22T23:55:38.162Z,98443.63
2022-11-22T23:58:04.377Z,98443.63
